sensor_id;sensor_type;location;lat;lon;timestamp;P1;durP1;ratioP1;P2;durP2;ratioP2
22650;SDS011;11492;42.646;23.400;2024-01-15T00:01:49;71.18;;;24.38;;
22650;SDS011;11492;42.646;23.400;2024-01-15T00:04:14;66.70;;;22.83;;
22650;SDS011;11492;42.646;23.400;2024-01-15T00:06:40;40.47;;;17.98;;
22650;SDS011;11492;42.646;23.400;2024-01-15T00:09:06;53.83;;;20.55;;
22650;SDS011;11492;42.646;23.400;2024-01-15T00:11:32;49.13;;;18.45;;
22650;SDS011;11492;42.646;23.400;2024-01-15T00:13:58;47.05;;;17.58;;
22650;SDS011;11492;42.646;23.400;2024-01-15T00:16:24;40.20;;;17.00;;
22650;SDS011;11492;42.646;23.400;2024-01-15T00:18:50;53.47;;;18.60;;
22650;SDS011;11492;42.646;23.400;2024-01-15T00:21:15;53.95;;;19.15;;
22650;SDS011;11492;42.646;23.400;2024-01-15T00:23:44;49.97;;;19.33;;
22650;SDS011;11492;42.646;23.400;2024-01-15T00:26:10;56.55;;;21.80;;
22650;SDS011;11492;42.646;23.400;2024-01-15T00:28:36;57.20;;;20.58;;
22650;SDS011;11492;42.646;23.400;2024-01-15T00:31:03;60.13;;;23.17;;
22650;SDS011;11492;42.646;23.400;2024-01-15T00:33:31;57.00;;;23.23;;
22650;SDS011;11492;42.646;23.400;2024-01-15T00:35:57;53.60;;;23.73;;
22650;SDS011;11492;42.646;23.400;2024-01-15T00:38:23;66.25;;;24.33;;
22650;SDS011;11492;42.646;23.400;2024-01-15T00:40:48;65.95;;;25.08;;
22650;SDS011;11492;42.646;23.400;2024-01-15T00:43:14;71.57;;;26.02;;
22650;SDS011;11492;42.646;23.400;2024-01-15T00:45:40;71.30;;;25.05;;
22650;SDS011;11492;42.646;23.400;2024-01-15T00:48:06;68.10;;;25.20;;
22650;SDS011;11492;42.646;23.400;2024-01-15T00:50:32;64.47;;;24.92;;
22650;SDS011;11492;42.646;23.400;2024-01-15T00:52:57;75.40;;;28.45;;
22650;SDS011;11492;42.646;23.400;2024-01-15T00:55:23;65.60;;;26.90;;
22650;SDS011;11492;42.646;23.400;2024-01-15T00:57:49;70.05;;;28.10;;
22650;SDS011;11492;42.646;23.400;2024-01-15T01:00:14;72.60;;;27.45;;
22650;SDS011;11492;42.646;23.400;2024-01-15T01:02:40;79.15;;;27.98;;
22650;SDS011;11492;42.646;23.400;2024-01-15T01:05:06;74.90;;;28.33;;
22650;SDS011;11492;42.646;23.400;2024-01-15T01:07:32;76.10;;;27.77;;
22650;SDS011;11492;42.646;23.400;2024-01-15T01:09:58;69.20;;;29.42;;
22650;SDS011;11492;42.646;23.400;2024-01-15T01:12:23;73.32;;;28.98;;
22650;SDS011;11492;42.646;23.400;2024-01-15T01:14:49;80.50;;;28.92;;
22650;SDS011;11492;42.646;23.400;2024-01-15T01:17:15;82.53;;;27.95;;
22650;SDS011;11492;42.646;23.400;2024-01-15T01:19:40;69.90;;;29.70;;
22650;SDS011;11492;42.646;23.400;2024-01-15T01:22:06;72.20;;;29.40;;
22650;SDS011;11492;42.646;23.400;2024-01-15T01:24:31;70.03;;;27.83;;
22650;SDS011;11492;42.646;23.400;2024-01-15T01:26:58;68.57;;;26.92;;
22650;SDS011;11492;42.646;23.400;2024-01-15T01:29:24;77.93;;;28.40;;
22650;SDS011;11492;42.646;23.400;2024-01-15T01:31:51;71.18;;;27.30;;
22650;SDS011;11492;42.646;23.400;2024-01-15T01:34:17;63.80;;;25.52;;
22650;SDS011;11492;42.646;23.400;2024-01-15T01:36:43;67.82;;;25.38;;
22650;SDS011;11492;42.646;23.400;2024-01-15T01:39:08;55.28;;;22.25;;
22650;SDS011;11492;42.646;23.400;2024-01-15T01:41:35;56.92;;;21.98;;
22650;SDS011;11492;42.646;23.400;2024-01-15T01:44:00;58.67;;;22.30;;
22650;SDS011;11492;42.646;23.400;2024-01-15T01:46:27;45.60;;;19.67;;
22650;SDS011;11492;42.646;23.400;2024-01-15T01:48:53;45.67;;;18.90;;
22650;SDS011;11492;42.646;23.400;2024-01-15T01:51:21;51.97;;;19.25;;
22650;SDS011;11492;42.646;23.400;2024-01-15T01:53:49;41.13;;;17.30;;
22650;SDS011;11492;42.646;23.400;2024-01-15T01:56:16;42.22;;;16.60;;
22650;SDS011;11492;42.646;23.400;2024-01-15T01:58:43;40.28;;;16.80;;
22650;SDS011;11492;42.646;23.400;2024-01-15T02:01:10;46.47;;;16.73;;
22650;SDS011;11492;42.646;23.400;2024-01-15T02:03:38;35.83;;;15.75;;
22650;SDS011;11492;42.646;23.400;2024-01-15T02:06:05;39.70;;;14.75;;
22650;SDS011;11492;42.646;23.400;2024-01-15T02:08:31;37.92;;;15.75;;
22650;SDS011;11492;42.646;23.400;2024-01-15T02:10:57;40.75;;;16.17;;
22650;SDS011;11492;42.646;23.400;2024-01-15T02:13:23;40.63;;;15.70;;
22650;SDS011;11492;42.646;23.400;2024-01-15T02:15:49;36.65;;;14.90;;
22650;SDS011;11492;42.646;23.400;2024-01-15T02:18:14;37.97;;;15.05;;
22650;SDS011;11492;42.646;23.400;2024-01-15T02:20:40;33.40;;;14.55;;
22650;SDS011;11492;42.646;23.400;2024-01-15T02:25:43;38.47;;;14.25;;
22650;SDS011;11492;42.646;23.400;2024-01-15T02:28:16;30.63;;;14.13;;
22650;SDS011;11492;42.646;23.400;2024-01-15T02:30:42;38.83;;;15.00;;
22650;SDS011;11492;42.646;23.400;2024-01-15T02:33:10;42.83;;;15.73;;
22650;SDS011;11492;42.646;23.400;2024-01-15T02:35:36;35.42;;;14.38;;
22650;SDS011;11492;42.646;23.400;2024-01-15T02:38:03;40.75;;;15.20;;
22650;SDS011;11492;42.646;23.400;2024-01-15T02:40:30;36.88;;;14.68;;
22650;SDS011;11492;42.646;23.400;2024-01-15T02:42:56;36.95;;;15.10;;
22650;SDS011;11492;42.646;23.400;2024-01-15T02:45:22;37.72;;;16.52;;
22650;SDS011;11492;42.646;23.400;2024-01-15T02:47:48;38.47;;;14.68;;
22650;SDS011;11492;42.646;23.400;2024-01-15T02:50:14;35.63;;;14.68;;
22650;SDS011;11492;42.646;23.400;2024-01-15T02:52:41;29.38;;;12.50;;
22650;SDS011;11492;42.646;23.400;2024-01-15T02:55:07;33.40;;;13.43;;
22650;SDS011;11492;42.646;23.400;2024-01-15T02:57:33;32.10;;;13.30;;
22650;SDS011;11492;42.646;23.400;2024-01-15T02:59:59;32.83;;;12.85;;
22650;SDS011;11492;42.646;23.400;2024-01-15T03:02:25;30.48;;;13.52;;
22650;SDS011;11492;42.646;23.400;2024-01-15T03:04:51;31.98;;;13.90;;
22650;SDS011;11492;42.646;23.400;2024-01-15T03:07:17;35.50;;;13.85;;
22650;SDS011;11492;42.646;23.400;2024-01-15T03:09:42;34.53;;;14.10;;
22650;SDS011;11492;42.646;23.400;2024-01-15T03:12:08;30.40;;;12.88;;
22650;SDS011;11492;42.646;23.400;2024-01-15T03:14:35;35.65;;;14.40;;
22650;SDS011;11492;42.646;23.400;2024-01-15T03:17:00;38.40;;;14.63;;
22650;SDS011;11492;42.646;23.400;2024-01-15T03:19:26;33.03;;;13.57;;
22650;SDS011;11492;42.646;23.400;2024-01-15T03:21:52;34.45;;;14.25;;
22650;SDS011;11492;42.646;23.400;2024-01-15T03:24:18;33.75;;;15.43;;
22650;SDS011;11492;42.646;23.400;2024-01-15T03:26:43;33.10;;;15.77;;
22650;SDS011;11492;42.646;23.400;2024-01-15T03:29:09;40.63;;;16.63;;
22650;SDS011;11492;42.646;23.400;2024-01-15T03:31:35;44.22;;;16.83;;
22650;SDS011;11492;42.646;23.400;2024-01-15T03:34:00;43.95;;;17.88;;
22650;SDS011;11492;42.646;23.400;2024-01-15T03:36:26;44.92;;;18.58;;
22650;SDS011;11492;42.646;23.400;2024-01-15T03:38:52;52.10;;;20.67;;
22650;SDS011;11492;42.646;23.400;2024-01-15T03:41:18;55.42;;;21.83;;
22650;SDS011;11492;42.646;23.400;2024-01-15T03:43:43;58.33;;;22.38;;
22650;SDS011;11492;42.646;23.400;2024-01-15T03:46:09;67.03;;;24.65;;
22650;SDS011;11492;42.646;23.400;2024-01-15T03:48:35;64.15;;;24.70;;
22650;SDS011;11492;42.646;23.400;2024-01-15T03:51:00;62.83;;;24.98;;
22650;SDS011;11492;42.646;23.400;2024-01-15T03:53:26;59.92;;;25.27;;
22650;SDS011;11492;42.646;23.400;2024-01-15T03:55:52;57.17;;;24.08;;
22650;SDS011;11492;42.646;23.400;2024-01-15T03:58:17;61.20;;;22.50;;
22650;SDS011;11492;42.646;23.400;2024-01-15T04:00:43;46.38;;;20.10;;
22650;SDS011;11492;42.646;23.400;2024-01-15T04:03:09;53.78;;;21.02;;
22650;SDS011;11492;42.646;23.400;2024-01-15T04:05:35;50.45;;;17.27;;
22650;SDS011;11492;42.646;23.400;2024-01-15T04:08:00;42.30;;;16.13;;
22650;SDS011;11492;42.646;23.400;2024-01-15T04:10:26;41.65;;;16.48;;
22650;SDS011;11492;42.646;23.400;2024-01-15T04:12:52;42.75;;;17.98;;
22650;SDS011;11492;42.646;23.400;2024-01-15T04:15:18;43.35;;;16.50;;
22650;SDS011;11492;42.646;23.400;2024-01-15T04:17:43;38.17;;;16.10;;
22650;SDS011;11492;42.646;23.400;2024-01-15T04:20:09;40.22;;;16.77;;
22650;SDS011;11492;42.646;23.400;2024-01-15T04:22:36;41.17;;;17.08;;
22650;SDS011;11492;42.646;23.400;2024-01-15T04:25:02;46.17;;;18.77;;
22650;SDS011;11492;42.646;23.400;2024-01-15T04:27:28;48.25;;;18.55;;
22650;SDS011;11492;42.646;23.400;2024-01-15T04:29:54;49.17;;;19.42;;
22650;SDS011;11492;42.646;23.400;2024-01-15T04:32:20;43.60;;;18.40;;
22650;SDS011;11492;42.646;23.400;2024-01-15T04:34:45;45.30;;;18.40;;
22650;SDS011;11492;42.646;23.400;2024-01-15T04:37:11;44.63;;;18.80;;
22650;SDS011;11492;42.646;23.400;2024-01-15T04:39:38;41.47;;;18.27;;
22650;SDS011;11492;42.646;23.400;2024-01-15T04:42:04;45.15;;;19.58;;
22650;SDS011;11492;42.646;23.400;2024-01-15T04:44:31;45.92;;;18.50;;
22650;SDS011;11492;42.646;23.400;2024-01-15T04:46:57;47.38;;;18.42;;
22650;SDS011;11492;42.646;23.400;2024-01-15T04:49:22;46.92;;;19.52;;
22650;SDS011;11492;42.646;23.400;2024-01-15T04:51:51;47.92;;;19.00;;
22650;SDS011;11492;42.646;23.400;2024-01-15T04:54:17;48.80;;;18.75;;
22650;SDS011;11492;42.646;23.400;2024-01-15T04:56:43;42.88;;;19.17;;
22650;SDS011;11492;42.646;23.400;2024-01-15T04:59:10;54.28;;;19.00;;
22650;SDS011;11492;42.646;23.400;2024-01-15T05:01:36;49.60;;;18.77;;
22650;SDS011;11492;42.646;23.400;2024-01-15T05:04:02;60.60;;;20.83;;
22650;SDS011;11492;42.646;23.400;2024-01-15T05:06:29;47.80;;;20.30;;
22650;SDS011;11492;42.646;23.400;2024-01-15T05:08:54;43.22;;;19.15;;
22650;SDS011;11492;42.646;23.400;2024-01-15T05:11:20;50.10;;;19.67;;
22650;SDS011;11492;42.646;23.400;2024-01-15T05:13:47;48.42;;;19.42;;
22650;SDS011;11492;42.646;23.400;2024-01-15T05:16:12;44.38;;;20.10;;
22650;SDS011;11492;42.646;23.400;2024-01-15T05:18:38;44.47;;;20.05;;
22650;SDS011;11492;42.646;23.400;2024-01-15T05:21:04;55.35;;;21.08;;
22650;SDS011;11492;42.646;23.400;2024-01-15T05:23:31;49.25;;;21.17;;
22650;SDS011;11492;42.646;23.400;2024-01-15T05:25:56;48.97;;;19.67;;
22650;SDS011;11492;42.646;23.400;2024-01-15T05:28:22;39.63;;;17.05;;
22650;SDS011;11492;42.646;23.400;2024-01-15T05:30:48;46.17;;;19.80;;
22650;SDS011;11492;42.646;23.400;2024-01-15T05:33:15;52.13;;;19.05;;
22650;SDS011;11492;42.646;23.400;2024-01-15T05:35:41;45.67;;;20.55;;
22650;SDS011;11492;42.646;23.400;2024-01-15T05:38:07;52.47;;;21.05;;
22650;SDS011;11492;42.646;23.400;2024-01-15T05:40:33;60.97;;;24.58;;
22650;SDS011;11492;42.646;23.400;2024-01-15T05:42:59;57.53;;;23.85;;
22650;SDS011;11492;42.646;23.400;2024-01-15T05:45:26;70.00;;;25.75;;
22650;SDS011;11492;42.646;23.400;2024-01-15T05:47:52;68.53;;;26.63;;
22650;SDS011;11492;42.646;23.400;2024-01-15T05:50:17;64.63;;;27.20;;
22650;SDS011;11492;42.646;23.400;2024-01-15T05:52:43;63.45;;;26.55;;
22650;SDS011;11492;42.646;23.400;2024-01-15T05:55:09;68.50;;;27.88;;
22650;SDS011;11492;42.646;23.400;2024-01-15T05:57:35;63.72;;;28.40;;
22650;SDS011;11492;42.646;23.400;2024-01-15T06:00:01;68.97;;;27.90;;
22650;SDS011;11492;42.646;23.400;2024-01-15T06:02:27;67.05;;;28.05;;
22650;SDS011;11492;42.646;23.400;2024-01-15T06:04:53;66.05;;;27.92;;
22650;SDS011;11492;42.646;23.400;2024-01-15T06:07:19;69.38;;;27.38;;
22650;SDS011;11492;42.646;23.400;2024-01-15T06:09:44;98.00;;;39.72;;
22650;SDS011;11492;42.646;23.400;2024-01-15T06:12:10;87.70;;;37.17;;
22650;SDS011;11492;42.646;23.400;2024-01-15T06:14:36;81.07;;;33.08;;
22650;SDS011;11492;42.646;23.400;2024-01-15T06:17:01;105.07;;;38.35;;
22650;SDS011;11492;42.646;23.400;2024-01-15T06:19:27;68.32;;;28.33;;
22650;SDS011;11492;42.646;23.400;2024-01-15T06:21:53;77.15;;;31.98;;
22650;SDS011;11492;42.646;23.400;2024-01-15T06:24:19;107.95;;;39.70;;
22650;SDS011;11492;42.646;23.400;2024-01-15T06:26:46;256.67;;;118.97;;
22650;SDS011;11492;42.646;23.400;2024-01-15T06:29:12;470.55;;;194.30;;
22650;SDS011;11492;42.646;23.400;2024-01-15T06:31:38;133.13;;;56.88;;
22650;SDS011;11492;42.646;23.400;2024-01-15T06:34:03;72.47;;;29.02;;
22650;SDS011;11492;42.646;23.400;2024-01-15T06:36:29;78.13;;;30.38;;
22650;SDS011;11492;42.646;23.400;2024-01-15T06:38:55;85.38;;;35.72;;
22650;SDS011;11492;42.646;23.400;2024-01-15T06:41:21;78.50;;;35.13;;
22650;SDS011;11492;42.646;23.400;2024-01-15T06:43:47;88.07;;;33.20;;
22650;SDS011;11492;42.646;23.400;2024-01-15T06:46:19;90.25;;;34.85;;
22650;SDS011;11492;42.646;23.400;2024-01-15T06:48:48;93.65;;;34.85;;
22650;SDS011;11492;42.646;23.400;2024-01-15T06:51:15;89.63;;;36.97;;
22650;SDS011;11492;42.646;23.400;2024-01-15T06:53:41;88.47;;;35.53;;
22650;SDS011;11492;42.646;23.400;2024-01-15T06:56:07;85.82;;;35.20;;
22650;SDS011;11492;42.646;23.400;2024-01-15T06:58:33;81.85;;;35.47;;
22650;SDS011;11492;42.646;23.400;2024-01-15T07:00:59;91.28;;;34.35;;
22650;SDS011;11492;42.646;23.400;2024-01-15T07:03:25;92.43;;;35.70;;
22650;SDS011;11492;42.646;23.400;2024-01-15T07:05:52;87.82;;;35.35;;
22650;SDS011;11492;42.646;23.400;2024-01-15T07:08:18;99.45;;;37.97;;
22650;SDS011;11492;42.646;23.400;2024-01-15T07:10:45;94.80;;;38.30;;
22650;SDS011;11492;42.646;23.400;2024-01-15T07:13:11;85.72;;;36.58;;
22650;SDS011;11492;42.646;23.400;2024-01-15T07:15:36;92.20;;;36.20;;
22650;SDS011;11492;42.646;23.400;2024-01-15T07:18:02;83.65;;;36.78;;
22650;SDS011;11492;42.646;23.400;2024-01-15T07:20:28;80.53;;;33.35;;
22650;SDS011;11492;42.646;23.400;2024-01-15T07:22:54;88.53;;;35.60;;
22650;SDS011;11492;42.646;23.400;2024-01-15T07:25:20;81.15;;;33.92;;
22650;SDS011;11492;42.646;23.400;2024-01-15T07:27:45;90.68;;;34.22;;
22650;SDS011;11492;42.646;23.400;2024-01-15T07:30:12;92.18;;;33.88;;
22650;SDS011;11492;42.646;23.400;2024-01-15T07:32:38;82.65;;;32.80;;
22650;SDS011;11492;42.646;23.400;2024-01-15T07:35:04;85.45;;;34.22;;
22650;SDS011;11492;42.646;23.400;2024-01-15T07:37:30;85.65;;;34.90;;
22650;SDS011;11492;42.646;23.400;2024-01-15T07:39:56;83.65;;;36.13;;
22650;SDS011;11492;42.646;23.400;2024-01-15T07:42:22;90.80;;;37.08;;
22650;SDS011;11492;42.646;23.400;2024-01-15T07:44:48;97.47;;;39.47;;
22650;SDS011;11492;42.646;23.400;2024-01-15T07:47:13;120.53;;;40.10;;
22650;SDS011;11492;42.646;23.400;2024-01-15T07:49:39;90.30;;;38.88;;
22650;SDS011;11492;42.646;23.400;2024-01-15T07:52:05;110.43;;;43.45;;
22650;SDS011;11492;42.646;23.400;2024-01-15T07:54:31;107.90;;;45.17;;
22650;SDS011;11492;42.646;23.400;2024-01-15T07:56:58;118.28;;;51.15;;
22650;SDS011;11492;42.646;23.400;2024-01-15T07:59:26;107.85;;;42.15;;
22650;SDS011;11492;42.646;23.400;2024-01-15T08:01:52;105.35;;;43.72;;
22650;SDS011;11492;42.646;23.400;2024-01-15T08:04:18;119.85;;;46.60;;
22650;SDS011;11492;42.646;23.400;2024-01-15T08:06:44;94.38;;;37.50;;
22650;SDS011;11492;42.646;23.400;2024-01-15T08:09:10;90.03;;;33.85;;
22650;SDS011;11492;42.646;23.400;2024-01-15T08:11:38;86.53;;;34.38;;
22650;SDS011;11492;42.646;23.400;2024-01-15T08:14:06;80.32;;;33.95;;
22650;SDS011;11492;42.646;23.400;2024-01-15T08:16:32;85.32;;;36.60;;
22650;SDS011;11492;42.646;23.400;2024-01-15T08:18:58;74.13;;;30.58;;
22650;SDS011;11492;42.646;23.400;2024-01-15T08:21:24;54.17;;;21.35;;
22650;SDS011;11492;42.646;23.400;2024-01-15T08:23:50;59.60;;;23.50;;
22650;SDS011;11492;42.646;23.400;2024-01-15T08:26:15;56.25;;;24.45;;
22650;SDS011;11492;42.646;23.400;2024-01-15T08:28:41;62.72;;;27.77;;
22650;SDS011;11492;42.646;23.400;2024-01-15T08:31:07;71.38;;;30.02;;
22650;SDS011;11492;42.646;23.400;2024-01-15T08:33:33;71.88;;;30.67;;
22650;SDS011;11492;42.646;23.400;2024-01-15T08:35:58;63.60;;;27.77;;
22650;SDS011;11492;42.646;23.400;2024-01-15T08:38:24;72.97;;;29.38;;
22650;SDS011;11492;42.646;23.400;2024-01-15T08:40:50;64.82;;;28.35;;
22650;SDS011;11492;42.646;23.400;2024-01-15T08:43:18;69.47;;;29.30;;
22650;SDS011;11492;42.646;23.400;2024-01-15T08:45:44;79.05;;;30.98;;
22650;SDS011;11492;42.646;23.400;2024-01-15T08:48:10;72.97;;;31.48;;
22650;SDS011;11492;42.646;23.400;2024-01-15T08:50:36;86.50;;;34.70;;
22650;SDS011;11492;42.646;23.400;2024-01-15T08:53:01;80.32;;;35.55;;
22650;SDS011;11492;42.646;23.400;2024-01-15T08:55:27;102.72;;;38.75;;
22650;SDS011;11492;42.646;23.400;2024-01-15T08:57:53;92.25;;;39.83;;
22650;SDS011;11492;42.646;23.400;2024-01-15T09:00:19;97.60;;;41.28;;
22650;SDS011;11492;42.646;23.400;2024-01-15T09:02:45;93.35;;;41.15;;
22650;SDS011;11492;42.646;23.400;2024-01-15T09:05:11;99.90;;;40.83;;
22650;SDS011;11492;42.646;23.400;2024-01-15T09:07:38;95.63;;;42.65;;
22650;SDS011;11492;42.646;23.400;2024-01-15T09:10:03;103.28;;;41.58;;
22650;SDS011;11492;42.646;23.400;2024-01-15T09:12:29;81.53;;;36.30;;
22650;SDS011;11492;42.646;23.400;2024-01-15T09:14:55;86.50;;;32.83;;
22650;SDS011;11492;42.646;23.400;2024-01-15T09:17:21;61.80;;;28.00;;
22650;SDS011;11492;42.646;23.400;2024-01-15T09:19:49;50.08;;;22.58;;
22650;SDS011;11492;42.646;23.400;2024-01-15T09:22:15;42.97;;;21.45;;
22650;SDS011;11492;42.646;23.400;2024-01-15T09:24:44;46.25;;;20.60;;
22650;SDS011;11492;42.646;23.400;2024-01-15T09:27:10;48.60;;;22.42;;
22650;SDS011;11492;42.646;23.400;2024-01-15T09:29:36;52.03;;;23.02;;
22650;SDS011;11492;42.646;23.400;2024-01-15T09:32:05;48.40;;;21.27;;
22650;SDS011;11492;42.646;23.400;2024-01-15T09:34:32;55.60;;;23.38;;
22650;SDS011;11492;42.646;23.400;2024-01-15T09:37:01;63.97;;;27.00;;
22650;SDS011;11492;42.646;23.400;2024-01-15T09:39:28;70.72;;;28.92;;
22650;SDS011;11492;42.646;23.400;2024-01-15T09:41:54;74.45;;;32.88;;
22650;SDS011;11492;42.646;23.400;2024-01-15T09:44:20;67.10;;;30.67;;
22650;SDS011;11492;42.646;23.400;2024-01-15T09:46:46;75.95;;;31.08;;
22650;SDS011;11492;42.646;23.400;2024-01-15T09:49:16;69.28;;;31.17;;
22650;SDS011;11492;42.646;23.400;2024-01-15T09:51:42;71.53;;;31.83;;
22650;SDS011;11492;42.646;23.400;2024-01-15T09:54:08;78.20;;;32.00;;
22650;SDS011;11492;42.646;23.400;2024-01-15T09:56:34;73.78;;;31.88;;
22650;SDS011;11492;42.646;23.400;2024-01-15T09:59:01;81.07;;;32.90;;
22650;SDS011;11492;42.646;23.400;2024-01-15T10:01:27;73.13;;;32.85;;
22650;SDS011;11492;42.646;23.400;2024-01-15T10:03:54;78.25;;;35.22;;
22650;SDS011;11492;42.646;23.400;2024-01-15T10:06:21;70.68;;;34.05;;
22650;SDS011;11492;42.646;23.400;2024-01-15T10:08:47;74.88;;;33.42;;
22650;SDS011;11492;42.646;23.400;2024-01-15T10:11:14;71.13;;;30.05;;
22650;SDS011;11492;42.646;23.400;2024-01-15T10:13:43;74.50;;;30.75;;
22650;SDS011;11492;42.646;23.400;2024-01-15T10:16:09;76.45;;;31.65;;
22650;SDS011;11492;42.646;23.400;2024-01-15T10:18:36;78.35;;;32.03;;
22650;SDS011;11492;42.646;23.400;2024-01-15T10:21:02;79.63;;;33.60;;
22650;SDS011;11492;42.646;23.400;2024-01-15T10:23:29;72.20;;;33.13;;
22650;SDS011;11492;42.646;23.400;2024-01-15T10:26:00;79.72;;;33.05;;
22650;SDS011;11492;42.646;23.400;2024-01-15T10:28:26;82.32;;;31.30;;
22650;SDS011;11492;42.646;23.400;2024-01-15T10:30:53;79.78;;;33.72;;
22650;SDS011;11492;42.646;23.400;2024-01-15T10:33:24;70.97;;;31.02;;
22650;SDS011;11492;42.646;23.400;2024-01-15T10:35:54;61.30;;;29.73;;
22650;SDS011;11492;42.646;23.400;2024-01-15T10:38:23;67.93;;;30.58;;
22650;SDS011;11492;42.646;23.400;2024-01-15T10:40:56;73.05;;;31.48;;
22650;SDS011;11492;42.646;23.400;2024-01-15T10:43:22;68.47;;;31.38;;
22650;SDS011;11492;42.646;23.400;2024-01-15T10:45:49;73.90;;;31.27;;
22650;SDS011;11492;42.646;23.400;2024-01-15T10:48:18;78.82;;;31.38;;
22650;SDS011;11492;42.646;23.400;2024-01-15T10:50:45;72.10;;;31.33;;
22650;SDS011;11492;42.646;23.400;2024-01-15T10:53:12;64.45;;;29.15;;
22650;SDS011;11492;42.646;23.400;2024-01-15T10:55:38;61.53;;;29.38;;
22650;SDS011;11492;42.646;23.400;2024-01-15T10:58:07;67.95;;;29.52;;
22650;SDS011;11492;42.646;23.400;2024-01-15T11:00:36;60.15;;;27.45;;
22650;SDS011;11492;42.646;23.400;2024-01-15T11:03:05;64.78;;;28.08;;
22650;SDS011;11492;42.646;23.400;2024-01-15T11:05:38;66.35;;;29.30;;
22650;SDS011;11492;42.646;23.400;2024-01-15T11:08:07;69.32;;;30.60;;
22650;SDS011;11492;42.646;23.400;2024-01-15T11:13:20;73.85;;;30.10;;
22650;SDS011;11492;42.646;23.400;2024-01-15T11:15:57;81.00;;;31.02;;
22650;SDS011;11492;42.646;23.400;2024-01-15T11:18:26;72.13;;;31.45;;
22650;SDS011;11492;42.646;23.400;2024-01-15T11:23:44;83.53;;;32.83;;
22650;SDS011;11492;42.646;23.400;2024-01-15T11:29:29;80.65;;;32.38;;
22650;SDS011;11492;42.646;23.400;2024-01-15T11:32:01;86.40;;;33.53;;
22650;SDS011;11492;42.646;23.400;2024-01-15T11:38:18;72.72;;;32.90;;
22650;SDS011;11492;42.646;23.400;2024-01-15T11:42:58;74.22;;;32.20;;
22650;SDS011;11492;42.646;23.400;2024-01-15T11:45:24;86.03;;;31.48;;
22650;SDS011;11492;42.646;23.400;2024-01-15T11:50:43;76.57;;;30.20;;
22650;SDS011;11492;42.646;23.400;2024-01-15T11:53:18;74.25;;;30.48;;
22650;SDS011;11492;42.646;23.400;2024-01-15T11:55:53;73.30;;;29.23;;
22650;SDS011;11492;42.646;23.400;2024-01-15T11:58:24;68.70;;;27.65;;
22650;SDS011;11492;42.646;23.400;2024-01-15T12:00:50;117.03;;;54.42;;
22650;SDS011;11492;42.646;23.400;2024-01-15T12:03:17;85.35;;;35.38;;
22650;SDS011;11492;42.646;23.400;2024-01-15T12:05:49;67.40;;;27.55;;
22650;SDS011;11492;42.646;23.400;2024-01-15T12:08:20;68.78;;;27.63;;
22650;SDS011;11492;42.646;23.400;2024-01-15T12:10:47;58.13;;;26.45;;
22650;SDS011;11492;42.646;23.400;2024-01-15T12:13:13;65.70;;;26.15;;
22650;SDS011;11492;42.646;23.400;2024-01-15T12:15:43;58.58;;;25.08;;
22650;SDS011;11492;42.646;23.400;2024-01-15T12:18:12;63.58;;;23.83;;
22650;SDS011;11492;42.646;23.400;2024-01-15T12:20:42;66.30;;;25.77;;
22650;SDS011;11492;42.646;23.400;2024-01-15T12:23:09;60.90;;;26.77;;
22650;SDS011;11492;42.646;23.400;2024-01-15T12:25:38;80.63;;;37.97;;
22650;SDS011;11492;42.646;23.400;2024-01-15T12:28:04;93.45;;;31.98;;
22650;SDS011;11492;42.646;23.400;2024-01-15T12:30:30;75.80;;;30.35;;
22650;SDS011;11492;42.646;23.400;2024-01-15T12:33:03;76.00;;;31.73;;
22650;SDS011;11492;42.646;23.400;2024-01-15T12:35:29;92.68;;;35.25;;
22650;SDS011;11492;42.646;23.400;2024-01-15T12:37:55;76.00;;;32.92;;
22650;SDS011;11492;42.646;23.400;2024-01-15T12:40:22;79.28;;;33.67;;
22650;SDS011;11492;42.646;23.400;2024-01-15T12:42:48;88.75;;;32.45;;
22650;SDS011;11492;42.646;23.400;2024-01-15T12:45:15;84.22;;;33.45;;
22650;SDS011;11492;42.646;23.400;2024-01-15T12:47:41;89.93;;;32.45;;
22650;SDS011;11492;42.646;23.400;2024-01-15T12:50:10;87.70;;;32.50;;
22650;SDS011;11492;42.646;23.400;2024-01-15T12:52:37;85.70;;;32.85;;
22650;SDS011;11492;42.646;23.400;2024-01-15T12:55:05;70.07;;;30.90;;
22650;SDS011;11492;42.646;23.400;2024-01-15T12:57:34;71.85;;;32.58;;
22650;SDS011;11492;42.646;23.400;2024-01-15T13:00:00;74.65;;;32.35;;
22650;SDS011;11492;42.646;23.400;2024-01-15T13:02:25;74.90;;;32.42;;
22650;SDS011;11492;42.646;23.400;2024-01-15T13:04:51;71.03;;;30.25;;
22650;SDS011;11492;42.646;23.400;2024-01-15T13:07:18;73.43;;;32.33;;
22650;SDS011;11492;42.646;23.400;2024-01-15T13:09:44;67.38;;;29.15;;
22650;SDS011;11492;42.646;23.400;2024-01-15T13:12:09;89.95;;;30.95;;
22650;SDS011;11492;42.646;23.400;2024-01-15T13:14:36;77.75;;;32.22;;
22650;SDS011;11492;42.646;23.400;2024-01-15T13:17:02;81.72;;;32.42;;
22650;SDS011;11492;42.646;23.400;2024-01-15T13:19:28;82.80;;;31.15;;
22650;SDS011;11492;42.646;23.400;2024-01-15T13:21:54;77.25;;;29.30;;
22650;SDS011;11492;42.646;23.400;2024-01-15T13:24:21;71.28;;;30.63;;
22650;SDS011;11492;42.646;23.400;2024-01-15T13:26:47;69.43;;;29.67;;
22650;SDS011;11492;42.646;23.400;2024-01-15T13:29:13;67.15;;;29.35;;
22650;SDS011;11492;42.646;23.400;2024-01-15T13:31:40;65.68;;;29.15;;
22650;SDS011;11492;42.646;23.400;2024-01-15T13:34:05;76.03;;;30.35;;
22650;SDS011;11492;42.646;23.400;2024-01-15T13:36:32;73.82;;;30.50;;
22650;SDS011;11492;42.646;23.400;2024-01-15T13:38:58;76.35;;;31.77;;
22650;SDS011;11492;42.646;23.400;2024-01-15T13:41:24;68.80;;;30.20;;
22650;SDS011;11492;42.646;23.400;2024-01-15T13:43:52;73.35;;;29.23;;
22650;SDS011;11492;42.646;23.400;2024-01-15T13:46:28;77.53;;;31.15;;
22650;SDS011;11492;42.646;23.400;2024-01-15T13:48:54;69.85;;;29.83;;
22650;SDS011;11492;42.646;23.400;2024-01-15T13:51:24;83.90;;;30.92;;
22650;SDS011;11492;42.646;23.400;2024-01-15T13:53:50;82.28;;;30.50;;
22650;SDS011;11492;42.646;23.400;2024-01-15T13:56:16;79.07;;;31.52;;
22650;SDS011;11492;42.646;23.400;2024-01-15T13:58:43;71.18;;;31.77;;
22650;SDS011;11492;42.646;23.400;2024-01-15T14:01:09;72.60;;;30.40;;
22650;SDS011;11492;42.646;23.400;2024-01-15T14:03:35;68.82;;;29.33;;
22650;SDS011;11492;42.646;23.400;2024-01-15T14:06:01;83.70;;;29.58;;
22650;SDS011;11492;42.646;23.400;2024-01-15T14:08:34;72.28;;;30.98;;
22650;SDS011;11492;42.646;23.400;2024-01-15T14:11:01;73.45;;;28.70;;
22650;SDS011;11492;42.646;23.400;2024-01-15T14:13:28;77.72;;;28.13;;
22650;SDS011;11492;42.646;23.400;2024-01-15T14:15:53;78.45;;;28.38;;
22650;SDS011;11492;42.646;23.400;2024-01-15T14:18:20;66.88;;;27.75;;
22650;SDS011;11492;42.646;23.400;2024-01-15T14:20:46;66.95;;;28.30;;
22650;SDS011;11492;42.646;23.400;2024-01-15T14:23:12;83.78;;;27.73;;
22650;SDS011;11492;42.646;23.400;2024-01-15T14:25:39;74.57;;;28.38;;